Time;durP1;ratioP1;P1;durP2;ratioP2;P2;SDS_P1;SDS_P2;PMS_P1;PMS_P2;Temp;Humidity;BMP_temperature;BMP_pressure;BME280_temperature;BME280_humidity;BME280_pressure;Samples;Min_cycle;Max_cycle;Signal;HPM_P1;HPM_P2
2021/10/12 00:00:05;;;;;;;0.80;0.80;;;;;;;7.39;87.15;93052.72;5110904;28;20070;-47
2021/10/12 00:02:30;;;;;;;0.77;0.77;;;;;;;7.33;87.14;93044.63;5111065;28;20016;-47
2021/10/12 00:04:55;;;;;;;2.65;1.30;;;;;;;7.14;88.16;93054.34;5111112;28;20039;-47
2021/10/12 00:07:21;;;;;;;2.30;1.55;;;;;;;6.98;89.07;93061.69;5110764;28;20020;-47
2021/10/12 00:09:47;;;;;;;3.53;1.70;;;;;;;6.91;90.17;93058.91;5111111;28;20099;-48
2021/10/12 00:12:12;;;;;;;1.42;1.17;;;;;;;6.95;90.37;93062.78;5110556;28;20024;-47
2021/10/12 00:14:38;;;;;;;1.48;1.30;;;;;;;6.91;90.61;93053.41;5110866;28;20031;-49
2021/10/12 00:17:03;;;;;;;2.80;1.50;;;;;;;6.85;90.88;93051.53;5111017;28;20027;-47
2021/10/12 00:19:28;;;;;;;1.20;1.00;;;;;;;6.92;90.85;93047.38;5110933;28;20385;-47
2021/10/12 00:21:54;;;;;;;2.47;1.15;;;;;;;6.98;90.23;93045.25;5107770;28;20581;-47
2021/10/12 00:24:19;;;;;;;0.88;0.88;;;;;;;7.09;90.05;93039.47;5090013;28;20054;-47
2021/10/12 00:26:45;;;;;;;0.80;0.80;;;;;;;7.17;90.03;93040.28;5090320;28;20028;-48
2021/10/12 00:29:10;;;;;;;0.77;0.77;;;;;;;7.26;89.95;93036.31;5090477;28;20017;-47
2021/10/12 00:31:36;;;;;;;0.93;0.90;;;;;;;7.36;89.59;93024.31;5090239;28;20031;-49
2021/10/12 00:34:01;;;;;;;0.50;0.50;;;;;;;7.41;89.08;93025.44;5090363;28;20103;-47
2021/10/12 00:36:26;;;;;;;0.80;0.80;;;;;;;7.45;88.67;93040.31;5088898;28;20031;-47
2021/10/12 00:38:52;;;;;;;0.70;0.70;;;;;;;7.26;88.38;93044.56;5090135;28;20020;-47
2021/10/12 00:41:20;;;;;;;1.63;1.10;;;;;;;7.09;89.25;93022.28;5097876;28;20023;-47
2021/10/12 00:43:45;;;;;;;1.55;1.25;;;;;;;7.39;89.21;93061.69;5110735;28;20111;-47
2021/10/12 00:46:11;;;;;;;1.48;1.20;;;;;;;7.49;88.90;93065.44;5110695;28;20027;-47
2021/10/12 00:48:37;;;;;;;1.50;1.25;;;;;;;7.41;88.96;93061.16;5110630;28;20389;-47
2021/10/12 00:51:02;;;;;;;2.50;1.25;;;;;;;7.54;88.76;93072.06;5110447;28;20177;-48
2021/10/12 00:53:29;;;;;;;1.80;1.63;;;;;;;7.58;88.78;93075.94;5110222;28;20027;-47
2021/10/12 00:55:55;;;;;;;3.88;2.28;;;;;;;7.63;88.63;93072.31;5111297;28;20588;-49
2021/10/12 00:58:21;;;;;;;1.98;1.65;;;;;;;7.75;88.40;93078.28;5114571;28;20020;-46
2021/10/12 01:00:46;;;;;;;1.45;1.35;;;;;;;7.83;88.11;93078.31;5114060;28;20667;-47
2021/10/12 01:03:12;;;;;;;2.97;2.17;;;;;;;7.86;87.73;93072.47;5114294;28;20015;-49
2021/10/12 01:05:37;;;;;;;12.20;8.07;;;;;;;7.90;86.86;93063.91;5114506;28;20019;-48
2021/10/12 01:08:03;;;;;;;6.97;3.47;;;;;;;7.90;87.25;93064.63;5114418;28;20055;-48
2021/10/12 01:10:29;;;;;;;4.07;2.90;;;;;;;7.99;86.69;93075.13;5114354;28;20030;-48
2021/10/12 01:12:55;;;;;;;4.15;2.53;;;;;;;8.04;85.86;93062.50;5114348;28;20404;-47
2021/10/12 01:15:20;;;;;;;2.60;2.40;;;;;;;8.06;86.35;93059.94;5114182;28;20028;-48
2021/10/12 01:17:46;;;;;;;4.00;2.83;;;;;;;8.04;86.61;93055.00;5114245;28;20397;-48
2021/10/12 01:20:12;;;;;;;3.38;2.50;;;;;;;8.05;86.61;93050.97;5114211;28;20024;-48
2021/10/12 01:22:39;;;;;;;2.33;2.10;;;;;;;8.06;86.35;93049.69;5104824;28;20024;-47
2021/10/12 01:25:05;;;;;;;2.40;2.03;;;;;;;8.01;86.42;93044.34;5093301;28;20040;-47
2021/10/12 01:27:30;;;;;;;4.82;4.00;;;;;;;7.97;86.05;93033.69;5093311;28;20024;-47
2021/10/12 01:29:56;;;;;;;2.63;2.40;;;;;;;8.06;85.28;93035.19;5093302;28;20042;-47
2021/10/12 01:32:21;;;;;;;2.50;2.30;;;;;;;8.04;85.65;93037.75;5093307;28;20016;-48
2021/10/12 01:34:47;;;;;;;1.33;1.23;;;;;;;7.99;85.09;93035.91;5093508;28;20017;-48
2021/10/12 01:37:12;;;;;;;1.35;0.90;;;;;;;7.88;85.44;93027.97;5098285;28;20035;-47
2021/10/12 01:39:37;;;;;;;1.10;1.00;;;;;;;7.86;86.45;93019.53;5113800;28;20020;-48
2021/10/12 01:42:04;;;;;;;0.88;0.88;;;;;;;7.75;86.34;93003.34;5113781;28;20019;-47
2021/10/12 01:44:30;;;;;;;1.05;0.98;;;;;;;7.73;87.21;92997.66;5113339;28;20016;-49
2021/10/12 01:46:55;;;;;;;1.35;1.25;;;;;;;7.47;88.09;92957.41;5113504;28;20034;-49
2021/10/12 01:49:22;;;;;;;2.72;1.42;;;;;;;7.73;88.12;92994.91;5113559;28;20016;-47
2021/10/12 01:51:47;;;;;;;3.30;2.35;;;;;;;7.81;88.11;92995.69;5112072;28;20111;-49
2021/10/12 01:54:14;;;;;;;6.47;5.65;;;;;;;7.86;88.72;92992.03;5112237;28;20016;-48
2021/10/12 01:56:40;;;;;;;7.85;4.97;;;;;;;7.85;87.95;92987.81;5113420;28;20084;-49
2021/10/12 01:59:05;;;;;;;3.72;3.40;;;;;;;7.85;88.14;92999.56;5113164;28;20039;-47
2021/10/12 02:01:31;;;;;;;7.63;3.95;;;;;;;7.88;87.99;92989.50;5113029;28;20026;-48
2021/10/12 02:03:56;;;;;;;4.13;2.85;;;;;;;7.91;87.96;92988.38;5113390;27;20047;-47
2021/10/12 02:06:22;;;;;;;3.33;2.78;;;;;;;7.85;87.69;92960.34;5113102;28;20515;-47
2021/10/12 02:08:47;;;;;;;8.38;2.50;;;;;;;7.95;87.01;92983.31;5113007;28;20027;-47
2021/10/12 02:11:13;;;;;;;2.20;2.00;;;;;;;7.84;86.42;92965.09;5113236;28;20473;-49
2021/10/12 02:13:38;;;;;;;2.92;2.10;;;;;;;7.89;86.37;92960.72;5113005;28;20066;-48
2021/10/12 02:16:04;;;;;;;2.97;2.20;;;;;;;7.92;86.51;92954.13;5113096;28;20027;-49
2021/10/12 02:18:29;;;;;;;3.22;2.15;;;;;;;7.91;85.93;92949.91;5113016;28;20039;-49
2021/10/12 02:20:55;;;;;;;0.82;0.82;;;;;;;7.87;86.18;92944.03;5113031;28;20030;-49
2021/10/12 02:23:20;;;;;;;1.30;1.20;;;;;;;7.71;86.18;92950.75;5097419;28;20060;-48
2021/10/12 02:25:45;;;;;;;1.20;1.10;;;;;;;7.68;87.30;92957.31;5092564;28;20085;-49
2021/10/12 02:28:11;;;;;;;5.68;1.65;;;;;;;7.74;87.87;92966.13;5092507;28;20028;-48
2021/10/12 02:30:37;;;;;;;6.40;5.75;;;;;;;7.84;88.55;92965.09;5092163;28;20478;-48
2021/10/12 02:33:02;;;;;;;4.25;3.65;;;;;;;7.88;88.53;92962.00;5093717;28;20024;-48
2021/10/12 02:35:28;;;;;;;4.25;3.45;;;;;;;7.92;88.48;92959.63;5112657;28;20231;-47
2021/10/12 02:37:53;;;;;;;4.95;4.05;;;;;;;8.02;88.53;92964.06;5112373;28;20038;-49
2021/10/12 02:40:19;;;;;;;3.80;2.42;;;;;;;8.03;88.10;92973.06;5109982;28;20076;-48
2021/10/12 02:42:45;;;;;;;6.03;4.57;;;;;;;8.07;87.66;92971.44;5112301;28;20036;-48
2021/10/12 02:45:10;;;;;;;4.40;4.00;;;;;;;8.09;86.77;92968.13;5112127;28;20073;-48
2021/10/12 02:47:36;;;;;;;2.20;2.00;;;;;;;7.98;86.66;92971.94;5112211;28;20019;-48
2021/10/12 02:50:04;;;;;;;2.20;2.10;;;;;;;7.99;86.60;92975.44;5112443;28;20024;-49
2021/10/12 02:52:29;;;;;;;3.20;1.67;;;;;;;7.95;86.88;92975.75;5112365;28;20066;-48
2021/10/12 02:54:55;;;;;;;1.30;1.20;;;;;;;7.96;86.22;92976.50;5112353;28;20441;-47
2021/10/12 02:57:21;;;;;;;1.45;1.00;;;;;;;7.68;86.65;92938.09;5111986;28;20050;-48
2021/10/12 02:59:46;;;;;;;1.10;0.82;;;;;;;8.02;87.08;92977.81;5112321;28;20027;-48
2021/10/12 03:02:12;;;;;;;1.20;1.10;;;;;;;7.99;86.60;92978.91;5112232;28;20031;-47
2021/10/12 03:04:37;;;;;;;2.85;1.02;;;;;;;8.05;86.28;92970.50;5112212;27;20474;-47
2021/10/12 03:07:03;;;;;;;1.52;1.20;;;;;;;8.03;86.94;92967.56;5111876;28;20503;-49
2021/10/12 03:09:28;;;;;;;2.30;1.00;;;;;;;8.02;86.35;92955.09;5112085;28;20031;-47
2021/10/12 03:11:53;;;;;;;1.42;1.33;;;;;;;8.00;86.51;92952.88;5111754;28;20488;-48
2021/10/12 03:14:19;;;;;;;0.88;0.88;;;;;;;7.99;86.60;92950.69;5111899;28;20020;-48
2021/10/12 03:16:44;;;;;;;1.33;1.23;;;;;;;8.02;86.78;92947.56;5111662;28;20027;-48
2021/10/12 03:19:12;;;;;;;1.50;1.40;;;;;;;8.03;87.15;92935.31;5110812;28;20027;-47
2021/10/12 03:21:42;;;;;;;1.92;1.70;;;;;;;8.11;87.04;92935.34;5111233;28;20024;-47
2021/10/12 03:24:08;;;;;;;2.45;2.25;;;;;;;8.15;87.11;92936.44;5090970;28;20513;-47
2021/10/12 03:26:33;;;;;;;1.80;1.60;;;;;;;8.15;87.26;92938.47;5091104;28;20036;-47
2021/10/12 03:28:59;;;;;;;4.88;3.08;;;;;;;8.14;86.61;92939.75;5091343;28;20028;-48
2021/10/12 03:31:25;;;;;;;4.07;2.22;;;;;;;8.17;86.51;92944.88;5109508;28;20492;-47
2021/10/12 03:33:50;;;;;;;3.20;2.17;;;;;;;7.99;86.39;92923.91;5111519;27;20404;-48
2021/10/12 03:36:16;;;;;;;2.58;2.20;;;;;;;8.13;86.01;92943.75;5111588;28;20039;-49
2021/10/12 03:38:42;;;;;;;2.50;2.30;;;;;;;8.07;85.75;92937.69;5111499;28;20027;-48
2021/10/12 03:41:07;;;;;;;1.50;1.40;;;;;;;8.08;85.87;92941.91;5111352;28;20031;-47
2021/10/12 03:43:33;;;;;;;1.73;1.42;;;;;;;8.04;85.94;92936.78;5111424;28;20034;-49
2021/10/12 03:45:58;;;;;;;1.50;1.40;;;;;;;8.06;85.81;92933.47;5111092;28;20032;-49
2021/10/12 03:48:24;;;;;;;5.95;1.88;;;;;;;8.00;85.91;92928.16;5111115;28;20019;-49
2021/10/12 03:50:49;;;;;;;2.00;1.80;;;;;;;7.95;86.47;92920.78;5111256;28;20085;-47
2021/10/12 03:53:15;;;;;;;3.95;1.73;;;;;;;7.98;86.41;92918.97;5111036;28;20504;-47
2021/10/12 03:55:40;;;;;;;11.68;2.00;;;;;;;7.97;86.63;92923.72;5110806;28;20023;-48
2021/10/12 03:58:06;;;;;;;1.80;1.52;;;;;;;7.99;86.43;92929.41;5111314;28;20034;-49
2021/10/12 04:00:32;;;;;;;1.55;1.42;;;;;;;7.98;86.92;92930.72;5110611;28;20523;-49
2021/10/12 04:02:58;;;;;;;1.42;1.33;;;;;;;7.97;87.26;92929.22;5109788;28;20037;-47
2021/10/12 04:05:24;;;;;;;2.22;1.70;;;;;;;7.91;86.72;92928.66;5110878;28;20106;-48
2021/10/12 04:07:49;;;;;;;2.38;2.17;;;;;;;7.88;86.56;92921.53;5109843;28;20115;-49
2021/10/12 04:10:15;;;;;;;5.35;2.30;;;;;;;7.84;86.91;92928.66;5111088;28;20054;-48
2021/10/12 04:12:40;;;;;;;2.88;2.28;;;;;;;7.81;87.13;92929.72;5110703;28;20028;-48
2021/10/12 04:15:06;;;;;;;3.10;2.38;;;;;;;7.77;87.33;92923.84;5110953;28;20028;-48
2021/10/12 04:17:32;;;;;;;1.88;1.48;;;;;;;7.78;87.85;92933.53;5110626;28;20119;-48
2021/10/12 04:19:57;;;;;;;1.30;1.20;;;;;;;7.77;87.42;92930.09;5110649;28;20046;-47
2021/10/12 04:22:23;;;;;;;2.00;1.42;;;;;;;7.76;87.78;92933.34;5102212;28;20069;-49
2021/10/12 04:24:49;;;;;;;1.10;1.00;;;;;;;7.57;87.48;92917.91;5089974;28;20055;-49
2021/10/12 04:27:15;;;;;;;2.15;1.88;;;;;;;7.69;87.56;92928.56;5105918;28;20046;-47
2021/10/12 04:29:40;;;;;;;2.30;2.10;;;;;;;7.71;88.22;92920.53;5111185;28;20028;-50
2021/10/12 04:32:09;;;;;;;3.78;3.00;;;;;;;7.74;87.63;92919.41;5114917;28;20092;-48
2021/10/12 04:34:34;;;;;;;4.55;3.35;;;;;;;7.71;87.58;92923.28;5115047;28;20047;-47
2021/10/12 04:36:59;;;;;;;2.92;1.98;;;;;;;7.70;87.57;92925.28;5114963;28;20445;-48
2021/10/12 04:39:25;;;;;;;3.58;2.47;;;;;;;7.70;87.50;92928.03;5114987;28;20652;-48
2021/10/12 04:41:51;;;;;;;5.47;3.28;;;;;;;7.50;87.61;92890.38;5114995;28;20453;-48
2021/10/12 04:44:17;;;;;;;4.38;3.13;;;;;;;7.68;87.74;92913.34;5114709;28;20511;-48
2021/10/12 04:46:42;;;;;;;3.67;2.80;;;;;;;7.64;87.89;92914.44;5114618;28;20027;-48
2021/10/12 04:49:08;;;;;;;4.50;2.72;;;;;;;7.64;87.75;92913.72;5114517;28;20046;-48
2021/10/12 04:51:34;;;;;;;2.20;2.00;;;;;;;7.65;87.65;92904.94;5114766;28;20034;-48
2021/10/12 04:53:59;;;;;;;2.75;2.15;;;;;;;7.70;87.73;92910.81;5114398;28;20031;-51
2021/10/12 04:56:25;;;;;;;1.70;1.60;;;;;;;7.71;87.48;92899.25;5114340;28;20031;-48
2021/10/12 04:58:50;;;;;;;1.63;1.52;;;;;;;7.71;87.19;92910.25;5114289;28;20035;-49
2021/10/12 05:01:16;;;;;;;1.67;1.20;;;;;;;7.72;87.26;92914.47;5114319;28;20027;-48
2021/10/12 05:03:41;;;;;;;3.58;1.70;;;;;;;7.68;87.25;92916.09;5114456;28;20038;-48
2021/10/12 05:06:07;;;;;;;5.20;3.17;;;;;;;7.67;87.31;92911.91;5114600;28;20023;-50
2021/10/12 05:08:32;;;;;;;3.58;2.60;;;;;;;7.64;87.33;92913.72;5114095;28;20493;-47
2021/10/12 05:10:58;;;;;;;1.35;1.27;;;;;;;7.63;87.46;92915.72;5112622;28;20054;-47
2021/10/12 05:13:23;;;;;;;1.50;1.35;;;;;;;7.68;87.47;92921.59;5114078;27;20493;-47
2021/10/12 05:15:50;;;;;;;2.55;1.50;;;;;;;7.74;87.40;92916.69;5114273;28;20027;-48
2021/10/12 05:18:21;;;;;;;1.45;1.35;;;;;;;7.80;87.30;92915.25;5114381;28;20042;-48
2021/10/12 05:20:46;;;;;;;4.93;2.00;;;;;;;7.81;87.31;92916.72;5114382;28;20069;-49
2021/10/12 05:23:13;;;;;;;3.50;2.03;;;;;;;7.93;87.49;92914.38;5095960;27;20493;-48
2021/10/12 05:25:39;;;;;;;2.20;1.63;;;;;;;7.92;86.48;92905.41;5093770;28;20436;-49
2021/10/12 05:28:05;;;;;;;1.70;1.60;;;;;;;8.02;86.71;92911.09;5092228;28;20036;-48
2021/10/12 05:30:34;;;;;;;2.83;1.92;;;;;;;8.02;86.54;92903.59;5092107;28;20089;-48
2021/10/12 05:32:59;;;;;;;1.77;1.67;;;;;;;8.00;86.51;92899.91;5092517;28;20092;-47
2021/10/12 05:35:25;;;;;;;3.58;1.25;;;;;;;8.06;86.39;92909.47;5093236;28;20024;-48
2021/10/12 05:37:50;;;;;;;4.00;2.65;;;;;;;8.15;86.50;92910.97;5093423;28;20032;-47
2021/10/12 05:40:16;;;;;;;4.03;1.80;;;;;;;8.16;86.30;92907.69;5093238;28;20055;-48
2021/10/12 05:42:41;;;;;;;13.68;5.90;;;;;;;8.18;86.25;92905.13;5092660;28;20036;-47
2021/10/12 05:45:07;;;;;;;11.30;6.05;;;;;;;8.29;86.63;92912.31;5093234;28;20034;-48
2021/10/12 05:47:32;;;;;;;8.48;4.75;;;;;;;8.37;86.25;92896.56;5092990;28;20143;-48
2021/10/12 05:49:58;;;;;;;13.77;8.40;;;;;;;8.58;86.09;92910.88;5091885;28;20035;-48
2021/10/12 05:52:25;;;;;;;22.30;7.18;;;;;;;8.71;85.06;92912.72;5092932;28;20028;-48
2021/10/12 05:55:06;;;;;;;14.10;6.03;;;;;;;8.84;84.80;92913.28;5093069;28;20016;-47
2021/10/12 05:58:24;;;;;;;6.53;3.88;;;;;;;8.97;84.25;92913.09;5093129;28;20108;-48
2021/10/12 06:00:20;;;;;;;4.68;3.50;;;;;;;9.09;84.05;92911.47;5090757;28;20047;-49
2021/10/12 06:02:45;;;;;;;21.45;10.77;;;;;;;9.23;83.79;92914.75;5113118;28;20031;-49
2021/10/12 06:05:10;;;;;;;15.85;6.35;;;;;;;9.40;83.45;92900.41;5113051;28;20027;-49
2021/10/12 06:07:36;;;;;;;8.23;3.55;;;;;;;9.53;82.59;92908.47;5113283;28;20076;-48
2021/10/12 06:10:01;;;;;;;13.07;5.40;;;;;;;9.62;82.26;92907.84;5113192;28;20024;-50
2021/10/12 06:12:27;;;;;;;3.95;2.92;;;;;;;9.71;80.88;92905.28;5112985;28;20081;-49
2021/10/12 06:14:52;;;;;;;2.58;1.77;;;;;;;9.69;80.70;92916.13;5113043;28;20027;-49
2021/10/12 06:17:18;;;;;;;3.03;1.75;;;;;;;9.69;80.50;92915.38;5113167;28;20035;-48
2021/10/12 06:19:43;;;;;;;6.57;4.13;;;;;;;9.59;80.09;92909.00;5112600;28;20446;-47
2021/10/12 06:22:09;;;;;;;3.58;2.20;;;;;;;9.54;80.21;92916.16;5108009;28;20035;-49
2021/10/12 06:24:34;;;;;;;6.30;3.45;;;;;;;9.47;81.15;92918.91;5092207;28;20433;-48
2021/10/12 06:26:59;;;;;;;6.40;3.47;;;;;;;9.42;81.04;92922.63;5092236;28;20420;-50
2021/10/12 06:29:25;;;;;;;3.83;2.28;;;;;;;9.45;81.60;92927.00;5091126;28;20032;-49
2021/10/12 06:31:50;;;;;;;8.65;4.93;;;;;;;9.47;81.34;92914.16;5092369;28;20024;-48
2021/10/12 06:34:16;;;;;;;14.85;7.20;;;;;;;9.49;80.97;92910.84;5092356;28;20085;-48
2021/10/12 06:36:41;;;;;;;17.50;9.32;;;;;;;9.56;81.84;92912.84;5092040;28;20408;-49
2021/10/12 06:39:08;;;;;;;5.13;2.90;;;;;;;9.51;80.80;92902.75;5092431;28;20047;-48
2021/10/12 06:41:33;;;;;;;2.38;1.38;;;;;;;9.56;80.41;92910.09;5092423;28;20031;-50
2021/10/12 06:43:59;;;;;;;0.70;0.70;;;;;;;9.47;79.93;92914.16;5092238;28;20032;-48
2021/10/12 06:46:24;;;;;;;5.07;2.47;;;;;;;9.53;81.01;92916.72;5092315;28;20165;-48
2021/10/12 06:48:50;;;;;;;11.23;6.38;;;;;;;9.59;81.50;92920.00;5092009;28;20573;-49
2021/10/12 06:51:15;;;;;;;10.95;5.55;;;;;;;9.61;81.06;92922.94;5102751;28;20028;-50
2021/10/12 06:53:43;;;;;;;10.15;5.05;;;;;;;9.57;80.69;92909.53;5111377;28;20023;-51
2021/10/12 06:56:09;;;;;;;2.28;1.73;;;;;;;9.57;79.40;92917.06;5112056;28;20116;-49
2021/10/12 06:58:34;;;;;;;6.22;2.60;;;;;;;9.65;81.15;92917.78;5111897;28;20412;-50
2021/10/12 07:01:00;;;;;;;2.85;1.90;;;;;;;9.68;81.42;92924.94;5111927;28;20032;-50
2021/10/12 07:03:25;;;;;;;9.75;5.05;;;;;;;9.71;81.60;92923.81;5112198;28;20027;-48
2021/10/12 07:05:51;;;;;;;19.25;10.68;;;;;;;9.76;82.21;92922.91;5112142;28;20545;-49
2021/10/12 07:08:16;;;;;;;12.73;6.30;;;;;;;9.87;82.54;92919.75;5110928;28;20500;-50
2021/10/12 07:10:41;;;;;;;5.28;2.88;;;;;;;10.04;81.84;92917.09;5112007;28;20508;-48
2021/10/12 07:13:08;;;;;;;8.50;4.40;;;;;;;10.23;80.95;92911.16;5111984;28;20465;-50
2021/10/12 07:15:34;;;;;;;9.80;3.97;;;;;;;10.40;79.94;92923.00;5111593;28;20023;-47
2021/10/12 07:18:00;;;;;;;17.63;7.35;;;;;;;10.52;78.34;92921.31;5111687;28;20031;-48
2021/10/12 07:20:25;;;;;;;3.05;1.90;;;;;;;10.56;77.56;92931.94;5111574;28;20055;-48
2021/10/12 07:22:51;;;;;;;3.40;2.05;;;;;;;10.54;78.11;92929.75;5096467;27;20055;-49
2021/10/12 07:25:16;;;;;;;7.40;3.72;;;;;;;10.54;78.36;92932.50;5091030;28;20040;-48
2021/10/12 07:27:42;;;;;;;13.77;6.72;;;;;;;10.55;78.53;92922.94;5091312;28;20444;-48
2021/10/12 07:30:08;;;;;;;7.07;3.67;;;;;;;10.54;77.71;92927.00;5091449;28;20493;-50
2021/10/12 07:32:35;;;;;;;7.43;2.25;;;;;;;10.49;77.99;92922.41;5091260;28;20035;-51
2021/10/12 07:35:01;;;;;;;8.95;4.55;;;;;;;10.51;77.91;92922.59;5090852;28;20504;-51
2021/10/12 07:37:27;;;;;;;9.98;6.05;;;;;;;10.54;77.16;92921.47;5091010;28;20089;-49
2021/10/12 07:39:52;;;;;;;2.80;1.88;;;;;;;10.55;76.08;92920.16;5091142;28;20032;-48
2021/10/12 07:42:18;;;;;;;3.05;2.15;;;;;;;10.58;76.55;92927.34;5091020;28;20028;-49
2021/10/12 07:44:43;;;;;;;3.60;2.35;;;;;;;10.55;76.42;92928.44;5091003;28;20020;-48
2021/10/12 07:47:09;;;;;;;4.15;3.05;;;;;;;10.50;77.25;92923.88;5089579;28;20031;-48
2021/10/12 07:49:35;;;;;;;6.28;2.33;;;;;;;10.44;77.42;92920.59;5090725;28;20094;-48
2021/10/12 07:52:06;;;;;;;4.68;3.90;;;;;;;10.46;77.01;92914.53;5090678;28;20501;-48
2021/10/12 07:55:01;;;;;;;3.67;2.85;;;;;;;10.53;76.71;92908.22;5090609;28;20023;-48
2021/10/12 07:57:18;;;;;;;1.50;1.10;;;;;;;10.60;75.94;92912.97;5090418;28;20043;-48
2021/10/12 07:59:44;;;;;;;2.10;1.95;;;;;;;10.57;76.43;92920.34;5090880;28;20528;-49
2021/10/12 08:02:13;;;;;;;1.60;1.10;;;;;;;10.60;76.61;92918.50;5090535;28;20024;-48
2021/10/12 08:04:40;;;;;;;4.22;1.00;;;;;;;10.55;75.23;92911.88;5090453;28;20028;-48
2021/10/12 08:07:06;;;;;;;2.85;1.27;;;;;;;10.51;75.06;92906.03;5090543;28;20044;-49
2021/10/12 08:09:31;;;;;;;2.70;1.95;;;;;;;10.49;75.77;92907.88;5090706;28;20027;-48
2021/10/12 08:11:57;;;;;;;5.50;2.45;;;;;;;10.56;75.67;92896.06;5103651;28;20035;-49
2021/10/12 08:14:24;;;;;;;4.43;3.30;;;;;;;10.68;75.68;92899.84;5110300;28;20031;-49
2021/10/12 08:16:50;;;;;;;3.08;1.90;;;;;;;10.77;75.59;92896.47;5110102;28;20596;-49
2021/10/12 08:19:15;;;;;;;1.65;1.10;;;;;;;10.77;74.88;92907.50;5110697;28;20118;-47
2021/10/12 08:21:41;;;;;;;1.67;0.93;;;;;;;10.78;73.72;92911.00;5109888;28;20031;-48
2021/10/12 08:24:06;;;;;;;3.13;1.40;;;;;;;10.76;73.96;92889.50;5090194;28;20040;-48
2021/10/12 08:26:33;;;;;;;3.85;2.78;;;;;;;10.91;73.78;92897.66;5090160;28;20513;-48
2021/10/12 08:28:59;;;;;;;6.45;4.50;;;;;;;11.03;74.34;92903.44;5090298;28;20028;-49
2021/10/12 08:31:24;;;;;;;2.50;2.03;;;;;;;11.13;73.78;92904.31;5090057;28;20095;-47
2021/10/12 08:33:50;;;;;;;2.20;1.80;;;;;;;10.98;73.18;92872.00;5090121;28;20111;-49
2021/10/12 08:48:57;;;;;;;0.50;0.50;;;;;;;12.18;67.27;92894.91;5128506;27;20614;-49
2021/10/12 08:51:23;;;;;;;0.45;0.45;;;;;;;11.95;68.67;92894.44;5128662;27;20039;-48
2021/10/12 08:53:49;;;;;;;0.40;0.40;;;;;;;11.85;68.11;92896.41;5128642;27;20703;-51
2021/10/12 08:56:14;;;;;;;0.43;0.40;;;;;;;11.71;68.52;92889.75;5128587;27;20098;-51
2021/10/12 08:58:40;;;;;;;2.35;1.00;;;;;;;11.73;69.31;92894.72;5128297;27;20480;-52
2021/10/12 09:01:07;;;;;;;1.73;0.70;;;;;;;11.68;69.04;92893.66;5128267;27;20030;-51
2021/10/12 09:03:45;;;;;;;0.90;0.80;;;;;;;11.70;70.49;92888.28;5128455;27;20106;-51
2021/10/12 09:06:10;;;;;;;0.75;0.75;;;;;;;11.69;69.47;92892.34;5128493;27;20020;-49
2021/10/12 09:08:39;;;;;;;0.73;0.57;;;;;;;11.80;69.59;92882.84;5111395;27;20538;-52
2021/10/12 09:11:22;;;;;;;0.60;0.43;;;;;;;11.65;68.51;92869.88;5112295;28;20016;-51
2021/10/12 09:13:50;;;;;;;0.47;0.47;;;;;;;11.85;67.44;92888.09;5127928;27;20058;-52
2021/10/12 09:16:17;;;;;;;1.00;0.90;;;;;;;11.81;67.63;92889.81;5128135;27;20408;-52
2021/10/12 09:18:45;;;;;;;1.75;1.27;;;;;;;11.79;67.93;92895.19;5128168;27;20153;-51
2021/10/12 09:21:23;;;;;;;1.37;1.27;;;;;;;11.78;68.92;92891.69;5128182;27;20027;-52
2021/10/12 09:23:49;;;;;;;0.70;0.70;;;;;;;11.41;66.48;92888.00;5109009;27;20433;-49
2021/10/12 09:26:34;;;;;;;0.52;0.30;;;;;;;11.35;68.53;92895.78;5107261;28;20024;-52
2021/10/12 09:29:13;;;;;;;2.60;1.08;;;;;;;11.19;68.17;92897.25;5107526;28;20462;-52
2021/10/12 09:31:44;;;;;;;3.83;2.33;;;;;;;11.09;70.49;92896.38;5107264;28;20015;-52
2021/10/12 09:34:12;;;;;;;1.02;0.70;;;;;;;10.98;68.97;92902.38;5106929;28;20032;-52
2021/10/12 09:36:46;;;;;;;3.80;2.58;;;;;;;10.96;69.23;92899.44;5107372;28;20027;-52
2021/10/12 09:39:14;;;;;;;2.38;1.73;;;;;;;10.93;70.14;92910.91;5107053;28;20039;-51
2021/10/12 09:41:44;;;;;;;0.47;0.40;;;;;;;10.78;69.92;92913.78;5107056;28;20058;-52
2021/10/12 09:44:17;;;;;;;0.50;0.50;;;;;;;10.77;71.53;92906.78;5106963;28;20031;-52
2021/10/12 09:46:45;;;;;;;0.60;0.60;;;;;;;10.55;70.02;92906.38;5123860;28;20058;-53
2021/10/12 09:49:24;;;;;;;1.73;1.30;;;;;;;10.49;72.04;92903.09;5117639;27;20115;-51
2021/10/12 09:52:03;;;;;;;1.13;1.02;;;;;;;10.54;70.27;92898.66;5113671;28;20111;-52
2021/10/12 09:54:37;;;;;;;0.70;0.70;;;;;;;10.63;72.46;92889.78;5113644;28;20054;-50
2021/10/12 09:57:05;;;;;;;0.73;0.73;;;;;;;10.65;73.03;92893.41;5113405;28;20556;-50
2021/10/12 09:59:31;;;;;;;0.60;0.60;;;;;;;10.68;74.12;92896.38;5113442;28;20034;-48
2021/10/12 10:01:58;;;;;;;0.32;0.32;;;;;;;10.53;73.37;92875.84;5113497;28;20035;-48
2021/10/12 10:04:25;;;;;;;0.73;0.73;;;;;;;10.53;73.07;92888.91;5113352;28;20088;-48
2021/10/12 10:06:53;;;;;;;0.85;0.50;;;;;;;10.54;74.98;92871.78;5110422;28;20066;-47
2021/10/12 10:09:22;;;;;;;0.40;0.40;;;;;;;10.41;73.92;92871.31;5092867;28;20031;-49
2021/10/12 10:11:49;;;;;;;0.60;0.60;;;;;;;10.33;74.67;92862.38;5093125;28;20052;-47
2021/10/12 10:14:16;;;;;;;0.80;0.70;;;;;;;10.43;75.35;92875.00;5092807;28;20107;-48
2021/10/12 10:16:49;;;;;;;14.07;5.05;;;;;;;10.34;76.08;92847.25;5092682;28;20024;-47
2021/10/12 10:19:18;;;;;;;15.10;6.68;;;;;;;10.37;75.57;92863.41;5093020;28;20417;-48
2021/10/12 10:21:46;;;;;;;2.45;1.02;;;;;;;10.29;73.85;92853.72;5092313;28;20027;-47
2021/10/12 10:24:23;;;;;;;1.80;1.38;;;;;;;10.25;76.40;92845.09;5092310;28;20032;-48
2021/10/12 10:26:50;;;;;;;2.28;1.60;;;;;;;10.13;76.38;92842.06;5092914;28;20077;-47
2021/10/12 10:29:36;;;;;;;1.20;1.10;;;;;;;10.15;77.24;92847.00;5092773;28;20107;-47
2021/10/12 10:32:13;;;;;;;1.08;0.90;;;;;;;9.98;75.51;92844.88;5092869;28;20031;-47
2021/10/12 10:34:40;;;;;;;0.47;0.45;;;;;;;9.94;76.64;92844.50;5092783;28;20490;-47
2021/10/12 10:37:17;;;;;;;3.53;2.38;;;;;;;9.89;76.31;92848.22;5092563;28;20412;-47
2021/10/12 10:39:48;;;;;;;13.73;7.22;;;;;;;9.91;77.53;92845.66;5092359;28;20024;-47
2021/10/12 10:42:26;;;;;;;3.22;2.50;;;;;;;9.82;78.19;92852.50;5092183;28;20019;-47
2021/10/12 10:45:02;;;;;;;4.80;2.22;;;;;;;9.76;77.76;92845.72;5093661;28;20032;-47
2021/10/12 10:47:51;;;;;;;12.40;5.03;;;;;;;9.57;78.10;92846.13;5112648;28;20066;-47
2021/10/12 10:50:32;;;;;;;2.45;1.80;;;;;;;9.39;78.99;92839.06;5112520;28;20511;-46
2021/10/12 10:53:03;;;;;;;2.90;0.90;;;;;;;9.42;79.28;92834.47;5112460;28;20118;-47
2021/10/12 10:55:29;;;;;;;1.98;1.70;;;;;;;9.40;79.13;92826.72;5112725;28;20106;-47
2021/10/12 10:58:03;;;;;;;2.25;2.05;;;;;;;9.36;79.91;92826.38;5112578;28;20458;-47
2021/10/12 11:00:55;;;;;;;5.70;3.08;;;;;;;9.12;80.26;92793.94;5111257;28;20030;-47
2021/10/12 11:03:36;;;;;;;5.22;3.42;;;;;;;9.28;80.26;92819.44;5107752;28;20134;-47
2021/10/12 11:06:11;;;;;;;5.80;3.60;;;;;;;9.27;79.59;92823.47;5091865;28;20024;-47
2021/10/12 11:08:40;;;;;;;3.55;2.10;;;;;;;9.32;80.27;92823.28;5091769;28;20115;-46
2021/10/12 11:11:09;;;;;;;5.18;3.13;;;;;;;9.18;80.51;92794.50;5090787;28;20027;-47
2021/10/12 11:13:40;;;;;;;4.95;3.22;;;;;;;9.25;79.42;92810.25;5091359;28;20032;-47
2021/10/12 11:16:08;;;;;;;4.25;2.97;;;;;;;9.14;80.40;92813.41;5091892;28;20034;-47
2021/10/12 11:18:34;;;;;;;3.90;2.40;;;;;;;9.12;80.34;92804.97;5091734;28;20024;-47
2021/10/12 11:21:02;;;;;;;4.07;2.50;;;;;;;9.21;81.08;92809.91;5091877;28;20024;-47
2021/10/12 11:23:42;;;;;;;9.05;4.75;;;;;;;9.20;80.28;92813.94;5091407;28;20042;-46
2021/10/12 11:26:12;;;;;;;5.70;4.05;;;;;;;9.22;80.70;92807.88;5091394;28;20016;-47
2021/10/12 11:28:46;;;;;;;7.45;5.55;;;;;;;9.21;80.10;92809.16;5091410;28;20078;-47
2021/10/12 11:31:14;;;;;;;4.82;3.83;;;;;;;9.22;80.61;92805.88;5091372;28;20028;-47
2021/10/12 11:33:45;;;;;;;2.00;1.80;;;;;;;9.19;78.99;92804.22;5091232;28;20561;-47
2021/10/12 11:36:13;;;;;;;3.92;3.08;;;;;;;9.13;80.14;92807.19;5091404;28;20032;-46
2021/10/12 11:38:44;;;;;;;5.93;3.95;;;;;;;9.18;81.42;92811.03;5091230;28;20500;-47
2021/10/12 11:41:15;;;;;;;3.78;2.67;;;;;;;9.15;80.73;92799.09;5091458;28;20024;-47
2021/10/12 11:43:42;;;;;;;1.00;1.00;;;;;;;9.20;80.07;92810.47;5091076;28;20504;-48
2021/10/12 11:46:08;;;;;;;1.52;1.42;;;;;;;9.24;80.56;92814.31;5103250;28;20503;-47
2021/10/12 11:48:38;;;;;;;3.80;2.13;;;;;;;9.26;80.58;92799.97;5111131;28;20036;-47
2021/10/12 11:51:29;;;;;;;4.32;3.38;;;;;;;9.34;80.17;92806.91;5111249;28;20023;-48